Time;durP1;ratioP1;P1;durP2;ratioP2;P2;SDS_P1;SDS_P2;PMS_P1;PMS_P2;Temp;Humidity;BMP_temperature;BMP_pressure;BME280_temperature;BME280_humidity;BME280_pressure;Samples;Min_cycle;Max_cycle;Signal;HPM_P1;HPM_P2
2022/05/06 00:01:32;;;;;;;;;;;16.40;70.80;;;;;;5075091;28;19957;-76
2022/05/06 00:03:57;;;;;;;;;;;16.50;70.90;;;;;;5093455;28;19912;-75
2022/05/06 00:06:23;;;;;;;;;;;16.40;70.80;;;;;;5075759;28;19909;-74
2022/05/06 00:08:49;;;;;;;;;;;16.40;70.80;;;;;;5094200;28;19920;-75
2022/05/06 00:11:14;;;;;;;;;;;16.40;70.80;;;;;;5095585;28;19923;-76
2022/05/06 00:13:40;;;;;;;;;;;16.40;70.80;;;;;;5079663;28;19913;-74
2022/05/06 00:16:06;;;;;;;;;;;16.40;70.80;;;;;;5078568;28;19987;-77
2022/05/06 00:18:31;;;;;;;;;;;16.40;70.80;;;;;;5079475;28;19912;-75
2022/05/06 00:20:57;;;;;;;;;;;16.40;70.70;;;;;;5097311;28;19916;-75
2022/05/06 00:23:23;;;;;;;;;;;16.40;70.70;;;;;;5097872;28;20003;-75
2022/05/06 00:25:49;;;;;;;;;;;16.40;70.70;;;;;;5079514;28;19909;-75
2022/05/06 00:28:15;;;;;;;;;;;16.40;70.80;;;;;;5078660;28;19934;-75
2022/05/06 00:30:41;;;;;;;;;;;16.40;70.80;;;;;;5096976;28;19920;-76
2022/05/06 00:33:09;;;;;;;;;;;16.40;70.80;;;;;;5095288;28;20320;-75
2022/05/06 00:35:38;;;;;;;;;;;16.40;70.80;;;;;;5096604;28;19912;-75
2022/05/06 00:38:04;;;;;;;;;;;16.40;70.90;;;;;;5095776;28;19908;-75
2022/05/06 00:40:30;;;;;;;;;;;16.40;71.00;;;;;;5095664;28;20400;-76
2022/05/06 00:42:58;;;;;;;;;;;16.40;71.10;;;;;;5095588;28;19964;-76
2022/05/06 00:45:28;;;;;;;;;;;16.30;71.20;;;;;;5077604;28;19918;-76
2022/05/06 00:47:54;;;;;;;;;;;16.30;71.30;;;;;;5077793;28;20385;-76
2022/05/06 00:50:20;;;;;;;;;;;16.30;71.90;;;;;;5078170;28;19931;-75
2022/05/06 00:52:45;;;;;;;;;;;16.20;71.50;;;;;;5096484;28;20082;-75
2022/05/06 00:55:11;;;;;;;;;;;16.20;71.60;;;;;;5094649;28;20362;-75
2022/05/06 00:57:36;;;;;;;;;;;16.20;71.70;;;;;;5059288;28;19916;-75
2022/05/06 01:00:19;;;;;;;;;;;16.20;71.70;;;;;;5094362;28;20350;-75
2022/05/06 01:02:48;;;;;;;;;;;16.20;71.80;;;;;;5094667;28;19934;-76
2022/05/06 01:05:14;;;;;;;;;;;16.20;71.90;;;;;;5093436;28;19915;-76
2022/05/06 01:07:40;;;;;;;;;;;16.10;72.00;;;;;;5075461;28;19908;-75
2022/05/06 01:10:06;;;;;;;;;;;16.10;72.10;;;;;;5076005;28;20009;-76
2022/05/06 01:12:32;;;;;;;;;;;16.10;72.10;;;;;;5094843;28;19907;-75
2022/05/06 01:14:57;;;;;;;;;;;16.10;72.10;;;;;;5094161;28;19919;-76
2022/05/06 01:17:23;;;;;;;;;;;16.10;72.00;;;;;;5093981;28;20377;-76
2022/05/06 01:19:48;;;;;;;;;;;16.20;72.30;;;;;;5092026;28;19912;-75
2022/05/06 01:22:14;;;;;;;;;;;16.10;72.20;;;;;;5072499;28;19912;-76
2022/05/06 01:24:40;;;;;;;;;;;16.10;72.20;;;;;;5093510;28;19908;-77
2022/05/06 01:27:08;;;;;;;;;;;16.10;72.30;;;;;;5076311;28;20293;-76
2022/05/06 01:29:35;;;;;;;;;;;16.10;72.20;;;;;;5095011;28;19924;-75
2022/05/06 01:32:01;;;;;;;;;;;16.10;72.30;;;;;;5076373;28;20314;-76
2022/05/06 01:34:28;;;;;;;;;;;16.10;72.30;;;;;;5075424;28;19934;-76
2022/05/06 01:36:54;;;;;;;;;;;16.10;72.40;;;;;;5093500;28;20014;-75
2022/05/06 01:39:23;;;;;;;;;;;16.10;72.40;;;;;;5094430;28;19908;-75
2022/05/06 01:41:52;;;;;;;;;;;16.10;72.50;;;;;;5093990;28;20411;-75
2022/05/06 01:44:19;;;;;;;;;;;16.10;72.60;;;;;;5075179;28;20050;-75
2022/05/06 01:46:45;;;;;;;;;;;16.10;72.60;;;;;;5094252;28;19915;-75
2022/05/06 01:49:11;;;;;;;;;;;16.10;72.70;;;;;;5059152;28;19927;-76
2022/05/06 01:51:38;;;;;;;;;;;16.10;72.70;;;;;;5093701;28;19908;-75
2022/05/06 01:54:04;;;;;;;;;;;16.10;72.70;;;;;;5094022;28;19908;-74
2022/05/06 01:56:30;;;;;;;;;;;16.10;73.00;;;;;;5073695;28;20413;-74
2022/05/06 01:58:55;;;;;;;;;;;16.10;72.80;;;;;;5091948;28;19916;-75
2022/05/06 02:01:21;;;;;;;;;;;16.00;73.00;;;;;;5073019;28;19990;-74
2022/05/06 02:06:31;;;;;;;;;;;16.00;73.80;;;;;;5077528;28;20015;-75
2022/05/06 02:08:56;;;;;;;;;;;15.90;73.50;;;;;;5091318;28;20350;-75
2022/05/06 02:11:22;;;;;;;;;;;15.90;73.50;;;;;;5091531;28;19947;-75
2022/05/06 02:13:47;;;;;;;;;;;15.90;73.50;;;;;;5057350;28;19912;-76
2022/05/06 02:16:13;;;;;;;;;;;15.80;73.60;;;;;;5057947;28;20412;-74
2022/05/06 02:18:39;;;;;;;;;;;15.80;73.80;;;;;;5091920;28;19916;-75
2022/05/06 02:21:04;;;;;;;;;;;15.70;74.10;;;;;;5073665;28;19914;-76
2022/05/06 02:23:30;;;;;;;;;;;15.70;74.30;;;;;;5091734;28;20010;-77
2022/05/06 02:25:56;;;;;;;;;;;15.60;74.40;;;;;;5072719;28;19908;-75
2022/05/06 02:28:21;;;;;;;;;;;15.60;74.60;;;;;;5073178;28;19915;-76
2022/05/06 02:33:31;;;;;;;;;;;15.60;74.80;;;;;;5076826;28;20432;-75
2022/05/06 02:35:57;;;;;;;;;;;15.60;74.90;;;;;;5073967;28;19916;-77
2022/05/06 02:38:24;;;;;;;;;;;15.60;75.00;;;;;;5073374;28;19908;-75
2022/05/06 02:40:49;;;;;;;;;;;15.60;75.00;;;;;;5073802;28;19944;-76
2022/05/06 02:43:15;;;;;;;;;;;15.60;75.00;;;;;;5073544;28;19935;-74
2022/05/06 02:45:41;;;;;;;;;;;15.70;75.40;;;;;;5074341;28;19912;-75
2022/05/06 02:48:07;;;;;;;;;;;15.60;75.40;;;;;;5093269;28;19915;-75
2022/05/06 02:50:33;;;;;;;;;;;15.60;75.50;;;;;;5091686;28;19955;-75
2022/05/06 02:52:58;;;;;;;;;;;15.60;75.50;;;;;;5072960;28;19916;-76
2022/05/06 02:55:24;;;;;;;;;;;15.60;75.50;;;;;;5093003;28;20243;-75
2022/05/06 02:57:53;;;;;;;;;;;15.60;75.60;;;;;;5073046;28;19944;-75
2022/05/06 03:00:19;;;;;;;;;;;15.50;75.60;;;;;;5092047;28;19912;-75
2022/05/06 03:02:44;;;;;;;;;;;15.50;75.70;;;;;;5089632;28;19915;-75
2022/05/06 03:05:10;;;;;;;;;;;15.50;75.70;;;;;;5089316;28;19916;-75
2022/05/06 03:07:35;;;;;;;;;;;15.40;75.70;;;;;;5072256;28;19958;-75
2022/05/06 03:10:01;;;;;;;;;;;15.40;75.60;;;;;;5073598;28;19951;-76
2022/05/06 03:12:29;;;;;;;;;;;15.40;75.70;;;;;;5074054;28;19914;-75
2022/05/06 03:14:55;;;;;;;;;;;15.30;75.70;;;;;;5091381;28;19916;-74
2022/05/06 03:17:20;;;;;;;;;;;15.30;75.60;;;;;;5092681;28;19909;-77
2022/05/06 03:19:46;;;;;;;;;;;15.30;75.70;;;;;;5073479;28;19961;-74
2022/05/06 03:22:12;;;;;;;;;;;15.20;75.80;;;;;;5093093;28;19951;-75
2022/05/06 03:24:38;;;;;;;;;;;15.20;75.70;;;;;;5092420;28;19995;-75
2022/05/06 03:27:04;;;;;;;;;;;15.10;75.90;;;;;;5091381;28;19996;-76
2022/05/06 03:29:30;;;;;;;;;;;15.00;76.00;;;;;;5089906;28;19923;-75
2022/05/06 03:31:56;;;;;;;;;;;15.00;76.10;;;;;;5089997;28;19908;-77
2022/05/06 03:34:22;;;;;;;;;;;14.90;76.40;;;;;;5072471;28;19911;-75
2022/05/06 03:36:48;;;;;;;;;;;14.80;76.40;;;;;;5090405;28;19912;-77
2022/05/06 03:39:13;;;;;;;;;;;14.80;76.60;;;;;;5072725;28;19923;-76
2022/05/06 03:41:39;;;;;;;;;;;14.80;76.70;;;;;;5091579;28;19912;-75
2022/05/06 03:44:06;;;;;;;;;;;14.80;76.80;;;;;;5091119;28;19924;-75
2022/05/06 03:46:32;;;;;;;;;;;14.80;76.90;;;;;;5094381;28;20285;-75
2022/05/06 03:49:01;;;;;;;;;;;14.70;77.00;;;;;;5077284;28;19916;-76
2022/05/06 03:51:31;;;;;;;;;;;14.70;77.10;;;;;;5076923;28;19920;-77
2022/05/06 03:53:57;;;;;;;;;;;14.60;77.20;;;;;;5077044;28;19912;-76
2022/05/06 03:56:23;;;;;;;;;;;14.60;77.20;;;;;;5078364;28;19908;-78
2022/05/06 03:58:50;;;;;;;;;;;14.50;77.30;;;;;;5097445;28;20279;-75
2022/05/06 04:01:17;;;;;;;;;;;14.50;77.40;;;;;;5078172;28;19914;-77
2022/05/06 04:03:42;;;;;;;;;;;14.40;77.70;;;;;;5078337;28;19909;-75
2022/05/06 04:06:08;;;;;;;;;;;14.40;78.00;;;;;;5061316;28;19962;-75
2022/05/06 04:08:34;;;;;;;;;;;14.40;78.20;;;;;;5079770;28;19947;-75
2022/05/06 04:11:00;;;;;;;;;;;14.40;78.00;;;;;;5095595;28;19912;-76
2022/05/06 04:13:26;;;;;;;;;;;14.30;78.00;;;;;;5060167;28;19923;-75
2022/05/06 04:15:51;;;;;;;;;;;14.30;78.20;;;;;;5094317;28;19909;-76
2022/05/06 04:18:17;;;;;;;;;;;14.30;78.40;;;;;;5076608;28;20073;-75
2022/05/06 04:23:30;;;;;;;;;;;14.20;78.70;;;;;;5095660;28;20277;-75
2022/05/06 04:26:06;;;;;;;;;;;14.10;78.80;;;;;;5094055;28;20002;-77
2022/05/06 04:28:32;;;;;;;;;;;14.10;79.00;;;;;;5095685;28;19965;-76
2022/05/06 04:30:58;;;;;;;;;;;14.10;79.30;;;;;;5075763;28;20327;-76
2022/05/06 04:33:27;;;;;;;;;;;14.10;79.30;;;;;;5094789;28;19912;-75
2022/05/06 04:35:53;;;;;;;;;;;14.00;79.30;;;;;;5092625;28;19935;-75
2022/05/06 04:38:19;;;;;;;;;;;14.00;79.60;;;;;;5093161;28;19915;-77
2022/05/06 04:40:45;;;;;;;;;;;13.90;79.70;;;;;;5092576;28;20012;-75
2022/05/06 04:43:11;;;;;;;;;;;13.90;79.80;;;;;;5057792;28;19947;-75
2022/05/06 04:45:40;;;;;;;;;;;13.90;79.90;;;;;;5092685;28;19915;-75
2022/05/06 04:48:06;;;;;;;;;;;13.90;80.00;;;;;;5092514;28;19979;-75
2022/05/06 04:50:36;;;;;;;;;;;13.80;79.80;;;;;;5092361;28;19958;-75
2022/05/06 04:53:02;;;;;;;;;;;13.80;80.10;;;;;;5073480;28;20018;-75
2022/05/06 04:55:28;;;;;;;;;;;13.90;80.30;;;;;;5074995;28;19947;-75
2022/05/06 04:57:53;;;;;;;;;;;13.80;80.40;;;;;;5076837;28;19928;-75
2022/05/06 05:00:22;;;;;;;;;;;13.80;80.40;;;;;;5076353;28;19919;-76
2022/05/06 05:02:48;;;;;;;;;;;13.80;80.60;;;;;;5095641;28;19908;-75
2022/05/06 05:05:13;;;;;;;;;;;13.80;80.50;;;;;;5077028;28;19919;-75
2022/05/06 05:07:40;;;;;;;;;;;13.80;80.60;;;;;;5060608;28;19919;-76
2022/05/06 05:10:06;;;;;;;;;;;13.90;80.50;;;;;;5075983;28;19962;-75
2022/05/06 05:12:32;;;;;;;;;;;13.90;80.60;;;;;;5093865;28;19908;-75
2022/05/06 05:14:57;;;;;;;;;;;13.90;80.80;;;;;;5074840;28;19911;-76
2022/05/06 05:17:23;;;;;;;;;;;13.90;80.80;;;;;;5074330;28;19912;-75
2022/05/06 05:19:48;;;;;;;;;;;13.90;81.00;;;;;;5075101;28;19919;-75
2022/05/06 05:22:14;;;;;;;;;;;13.90;81.20;;;;;;5058116;28;19970;-77
2022/05/06 05:24:40;;;;;;;;;;;13.90;81.20;;;;;;5074310;28;20171;-75
2022/05/06 05:27:06;;;;;;;;;;;13.90;81.40;;;;;;5092553;28;20273;-76
2022/05/06 05:29:31;;;;;;;;;;;13.90;81.60;;;;;;5074995;28;19919;-75
2022/05/06 05:31:57;;;;;;;;;;;14.00;81.80;;;;;;5092485;28;19908;-76
2022/05/06 05:34:22;;;;;;;;;;;14.00;81.90;;;;;;5075221;28;20287;-77
2022/05/06 05:36:48;;;;;;;;;;;14.00;81.80;;;;;;5092829;28;19912;-76
2022/05/06 05:39:14;;;;;;;;;;;14.00;81.90;;;;;;5075635;28;19912;-76
2022/05/06 05:41:39;;;;;;;;;;;14.00;82.00;;;;;;5075753;28;19909;-76
2022/05/06 05:49:33;;;;;;;;;;;14.10;82.10;;;;;;5076698;28;19922;-74
2022/05/06 05:51:59;;;;;;;;;;;14.10;82.10;;;;;;5074856;28;19912;-76
2022/05/06 05:54:25;;;;;;;;;;;14.10;82.10;;;;;;5093338;28;19912;-75
2022/05/06 05:56:51;;;;;;;;;;;14.10;82.20;;;;;;5075106;28;19965;-76
2022/05/06 05:59:17;;;;;;;;;;;14.20;82.40;;;;;;5092199;28;19912;-76
2022/05/06 06:01:42;;;;;;;;;;;14.20;82.40;;;;;;5091378;28;19915;-76
2022/05/06 06:04:08;;;;;;;;;;;14.30;82.40;;;;;;5073648;28;19908;-76
2022/05/06 06:06:33;;;;;;;;;;;14.40;82.50;;;;;;5074690;28;19916;-76
2022/05/06 06:08:59;;;;;;;;;;;14.40;82.50;;;;;;5092171;28;19908;-76
2022/05/06 06:11:25;;;;;;;;;;;14.50;82.60;;;;;;5090309;28;19916;-77
2022/05/06 06:13:50;;;;;;;;;;;14.50;83.10;;;;;;5074064;28;19951;-75
2022/05/06 06:16:17;;;;;;;;;;;14.50;82.60;;;;;;5073206;28;19912;-77
2022/05/06 06:18:42;;;;;;;;;;;14.60;82.60;;;;;;5090842;28;19957;-77
2022/05/06 06:21:08;;;;;;;;;;;14.70;82.70;;;;;;5054930;28;19916;-74
2022/05/06 06:23:33;;;;;;;;;;;14.70;82.70;;;;;;5072263;28;19912;-75
2022/05/06 06:25:59;;;;;;;;;;;14.70;82.70;;;;;;5091315;28;19952;-76
2022/05/06 06:28:25;;;;;;;;;;;14.70;82.80;;;;;;5090467;28;20358;-76
2022/05/06 06:30:50;;;;;;;;;;;14.80;82.90;;;;;;5090854;28;19912;-76
2022/05/06 06:33:16;;;;;;;;;;;14.80;82.90;;;;;;5091388;28;19916;-76
2022/05/06 06:35:42;;;;;;;;;;;14.90;82.90;;;;;;5089979;28;19955;-75
2022/05/06 06:38:07;;;;;;;;;;;14.90;82.90;;;;;;5091156;28;19909;-76
2022/05/06 06:40:33;;;;;;;;;;;15.00;82.90;;;;;;5072458;28;19912;-75
2022/05/06 06:43:01;;;;;;;;;;;15.00;82.80;;;;;;5091736;28;19920;-75
2022/05/06 06:45:26;;;;;;;;;;;15.10;82.80;;;;;;5089859;28;20425;-75
2022/05/06 06:47:53;;;;;;;;;;;15.10;82.80;;;;;;5073290;28;19955;-76
2022/05/06 06:50:19;;;;;;;;;;;15.10;82.80;;;;;;5090728;28;20018;-77
2022/05/06 06:52:44;;;;;;;;;;;15.10;82.80;;;;;;5091474;28;19978;-76
2022/05/06 06:55:10;;;;;;;;;;;15.20;82.80;;;;;;5089390;28;19914;-76
2022/05/06 06:57:36;;;;;;;;;;;15.20;82.80;;;;;;5073631;28;20313;-77
2022/05/06 07:00:01;;;;;;;;;;;15.30;82.70;;;;;;5072967;28;19912;-75
2022/05/06 07:02:28;;;;;;;;;;;15.30;82.70;;;;;;5091830;28;19951;-77
2022/05/06 07:04:53;;;;;;;;;;;15.40;82.80;;;;;;5091436;28;20009;-77
2022/05/06 07:12:47;;;;;;;;;;;15.50;82.80;;;;;;5090930;28;19914;-75
2022/05/06 07:15:13;;;;;;;;;;;15.50;82.70;;;;;;5073294;28;20395;-74
2022/05/06 07:17:38;;;;;;;;;;;15.50;82.70;;;;;;5072594;28;19917;-75
2022/05/06 07:20:04;;;;;;;;;;;15.60;82.80;;;;;;5091217;28;19912;-75
2022/05/06 07:22:30;;;;;;;;;;;15.60;82.80;;;;;;5076159;28;19909;-76
2022/05/06 07:24:56;;;;;;;;;;;15.80;83.00;;;;;;5094745;28;19915;-75
2022/05/06 07:27:22;;;;;;;;;;;15.90;82.80;;;;;;5076755;28;19916;-77
2022/05/06 07:29:47;;;;;;;;;;;16.00;82.70;;;;;;5093928;28;20293;-76
2022/05/06 07:32:13;;;;;;;;;;;16.00;82.40;;;;;;5075778;28;19912;-76
2022/05/06 07:34:38;;;;;;;;;;;16.10;82.30;;;;;;5058485;28;19935;-76
2022/05/06 07:37:04;;;;;;;;;;;16.10;82.30;;;;;;5093928;28;19912;-76
2022/05/06 07:39:30;;;;;;;;;;;16.20;82.30;;;;;;5094349;28;19916;-76
2022/05/06 07:41:56;;;;;;;;;;;16.20;82.20;;;;;;5095091;28;19915;-76
2022/05/06 07:44:21;;;;;;;;;;;16.30;82.30;;;;;;5076675;28;19920;-76
2022/05/06 07:46:47;;;;;;;;;;;16.40;82.00;;;;;;5095145;28;19951;-77
2022/05/06 07:49:13;;;;;;;;;;;16.50;82.00;;;;;;5093920;28;20405;-76
2022/05/06 07:51:38;;;;;;;;;;;16.50;81.90;;;;;;5075260;28;19912;-76
2022/05/06 07:54:04;;;;;;;;;;;16.60;82.40;;;;;;5074543;28;19948;-76
2022/05/06 07:56:30;;;;;;;;;;;16.70;81.90;;;;;;5095537;28;19908;-76
2022/05/06 07:58:56;;;;;;;;;;;16.80;81.70;;;;;;5094357;28;19908;-77
2022/05/06 08:04:32;;;;;;;;;;;16.90;81.40;;;;;;5094213;28;19912;-76
2022/05/06 08:06:52;;;;;;;;;;;17.00;81.10;;;;;;5094488;28;19914;-75
2022/05/06 08:09:18;;;;;;;;;;;17.10;81.20;;;;;;5076465;28;20588;-75
2022/05/06 08:11:44;;;;;;;;;;;17.10;80.90;;;;;;5074342;28;19915;-75
2022/05/06 08:14:10;;;;;;;;;;;17.10;81.10;;;;;;5093963;28;20366;-75
2022/05/06 08:16:35;;;;;;;;;;;17.10;81.10;;;;;;5094321;28;20377;-76
2022/05/06 08:19:01;;;;;;;;;;;17.20;81.00;;;;;;5094170;28;19966;-76
2022/05/06 08:21:26;;;;;;;;;;;17.10;80.70;;;;;;5094440;28;19912;-75
2022/05/06 08:23:52;;;;;;;;;;;17.10;80.60;;;;;;5075994;28;20380;-76
2022/05/06 08:26:18;;;;;;;;;;;17.00;80.70;;;;;;5077272;28;20022;-76
2022/05/06 08:28:43;;;;;;;;;;;16.90;81.00;;;;;;5094258;28;19912;-75
2022/05/06 08:31:09;;;;;;;;;;;16.90;81.10;;;;;;5059685;28;19991;-75
2022/05/06 08:33:35;;;;;;;;;;;16.90;81.20;;;;;;5094002;28;19912;-76
2022/05/06 08:36:00;;;;;;;;;;;16.90;81.20;;;;;;5059632;28;20285;-75
2022/05/06 08:38:26;;;;;;;;;;;16.90;81.30;;;;;;5075193;28;19916;-75
2022/05/06 08:40:52;;;;;;;;;;;16.90;81.40;;;;;;5092405;28;20062;-75
2022/05/06 08:43:17;;;;;;;;;;;17.00;81.40;;;;;;5093198;28;20285;-74
2022/05/06 08:51:12;;;;;;;;;;;17.00;81.70;;;;;;5091770;28;19927;-76
2022/05/06 08:53:39;;;;;;;;;;;16.90;82.00;;;;;;5093482;28;19916;-76
2022/05/06 08:56:05;;;;;;;;;;;16.80;82.40;;;;;;5092970;28;19912;-76
2022/05/06 08:58:33;;;;;;;;;;;16.70;82.50;;;;;;5094439;28;20348;-75
2022/05/06 09:01:10;;;;;;;;;;;16.70;82.80;;;;;;5074994;28;19958;-78
2022/05/06 09:03:39;;;;;;;;;;;16.80;83.00;;;;;;5072955;28;19908;-76
2022/05/06 09:06:15;;;;;;;;;;;16.90;83.10;;;;;;5073310;28;19923;-77
2022/05/06 09:08:42;;;;;;;;;;;17.00;83.00;;;;;;5092355;28;19908;-78
2022/05/06 09:11:08;;;;;;;;;;;17.00;83.00;;;;;;5076746;28;19934;-76
2022/05/06 09:13:37;;;;;;;;;;;17.10;83.10;;;;;;5094415;28;19918;-76
2022/05/06 09:16:41;;;;;;;;;;;17.20;83.10;;;;;;5093143;28;19919;-77
2022/05/06 09:19:27;;;;;;;;;;;17.20;83.00;;;;;;5067032;28;19965;-75
2022/05/06 09:22:10;;;;;;;;;;;17.20;83.20;;;;;;5090751;28;19935;-72
2022/05/06 09:24:37;;;;;;;;;;;17.20;83.30;;;;;;5072615;28;19955;-77
2022/05/06 09:27:03;;;;;;;;;;;17.30;83.60;;;;;;5057632;28;19977;-77
2022/05/06 09:29:35;;;;;;;;;;;17.30;83.50;;;;;;5091327;28;19916;-78
2022/05/06 09:32:19;;;;;;;;;;;17.40;83.50;;;;;;5091327;28;19909;-77
2022/05/06 09:34:46;;;;;;;;;;;17.50;83.40;;;;;;5084356;28;19916;-77
2022/05/06 09:37:27;;;;;;;;;;;17.40;83.20;;;;;;5090904;28;19908;-78
2022/05/06 09:40:11;;;;;;;;;;;17.40;83.20;;;;;;5072770;28;19908;-76
2022/05/06 09:42:55;;;;;;;;;;;17.20;83.20;;;;;;5072528;28;20415;-77
2022/05/06 09:45:37;;;;;;;;;;;17.20;83.40;;;;;;5066898;28;19920;-79
2022/05/06 09:48:03;;;;;;;;;;;17.10;83.60;;;;;;5069020;28;19919;-78
2022/05/06 09:50:36;;;;;;;;;;;17.10;83.80;;;;;;5072597;28;19926;-79
2022/05/06 09:53:06;;;;;;;;;;;17.10;83.90;;;;;;5074382;28;20464;-78
2022/05/06 09:55:31;;;;;;;;;;;17.10;84.10;;;;;;5090841;28;20281;-80
2022/05/06 09:57:57;;;;;;;;;;;17.10;84.20;;;;;;5091932;28;19947;-80
2022/05/06 10:00:23;;;;;;;;;;;17.00;84.30;;;;;;5083397;28;19966;-78
2022/05/06 10:02:49;;;;;;;;;;;17.00;84.70;;;;;;5072295;28;19966;-77
2022/05/06 10:05:14;;;;;;;;;;;16.80;84.50;;;;;;5073007;28;20433;-75
2022/05/06 10:07:41;;;;;;;;;;;16.70;84.80;;;;;;5091013;28;19966;-77
2022/05/06 10:10:08;;;;;;;;;;;16.60;85.00;;;;;;5057118;28;19926;-77
2022/05/06 10:12:44;;;;;;;;;;;16.40;85.20;;;;;;5072907;28;19912;-78
2022/05/06 10:15:12;;;;;;;;;;;16.40;85.70;;;;;;5072918;28;19908;-78
2022/05/06 10:17:54;;;;;;;;;;;16.30;85.90;;;;;;5072861;28;20337;-79
2022/05/06 10:20:45;;;;;;;;;;;16.30;86.00;;;;;;5071482;28;19985;-80
2022/05/06 10:23:11;;;;;;;;;;;16.30;86.40;;;;;;5071745;28;19912;-79
2022/05/06 10:25:40;;;;;;;;;;;16.30;86.70;;;;;;5071536;28;20014;-77
2022/05/06 10:34:17;;;;;;;;;;;16.30;87.50;;;;;;5090488;28;20009;-77
2022/05/06 10:36:43;;;;;;;;;;;16.20;87.90;;;;;;5090783;28;19938;-78
2022/05/06 10:39:28;;;;;;;;;;;16.10;88.30;;;;;;5056352;28;19935;-76
2022/05/06 10:42:09;;;;;;;;;;;16.10;88.40;;;;;;5072244;28;20357;-77
2022/05/06 10:44:42;;;;;;;;;;;16.10;88.80;;;;;;5090119;28;19919;-77
2022/05/06 10:47:13;;;;;;;;;;;16.30;89.20;;;;;;5090035;28;19915;-77
2022/05/06 10:49:39;;;;;;;;;;;16.30;89.00;;;;;;5073774;28;20289;-77
2022/05/06 10:52:13;;;;;;;;;;;16.40;89.00;;;;;;5093979;28;19912;-76
2022/05/06 10:54:39;;;;;;;;;;;16.50;89.40;;;;;;5073520;28;19908;-78
2022/05/06 10:57:05;;;;;;;;;;;16.60;89.30;;;;;;5076051;28;19971;-77
2022/05/06 10:59:50;;;;;;;;;;;16.70;89.20;;;;;;5075163;28;19908;-78
2022/05/06 11:02:16;;;;;;;;;;;16.70;89.40;;;;;;5091014;28;19930;-76
2022/05/06 11:04:51;;;;;;;;;;;16.70;89.60;;;;;;5072275;28;19912;-76
2022/05/06 11:07:17;;;;;;;;;;;16.80;89.80;;;;;;5091089;28;19908;-76
2022/05/06 11:09:43;;;;;;;;;;;16.90;90.00;;;;;;5090751;28;19927;-75
2022/05/06 11:12:09;;;;;;;;;;;17.00;90.00;;;;;;5092087;28;19995;-77
2022/05/06 11:14:34;;;;;;;;;;;17.10;90.00;;;;;;5091986;28;19923;-77
2022/05/06 11:17:18;;;;;;;;;;;17.10;90.00;;;;;;5093668;28;19997;-77
2022/05/06 11:19:44;;;;;;;;;;;17.10;90.00;;;;;;5092159;28;19999;-70
2022/05/06 11:22:10;;;;;;;;;;;17.20;90.30;;;;;;5091891;28;20387;-77
2022/05/06 11:24:36;;;;;;;;;;;17.20;90.10;;;;;;5055623;28;19937;-74
2022/05/06 11:27:14;;;;;;;;;;;17.20;90.20;;;;;;5091136;28;19915;-75
2022/05/06 11:29:57;;;;;;;;;;;17.20;90.20;;;;;;5072592;28;19912;-76
2022/05/06 11:32:24;;;;;;;;;;;17.20;90.30;;;;;;5091371;28;19915;-77
2022/05/06 11:34:52;;;;;;;;;;;17.20;90.40;;;;;;5090622;28;19922;-75
2022/05/06 11:37:28;;;;;;;;;;;17.20;90.50;;;;;;5072449;28;19966;-76
2022/05/06 11:42:38;;;;;;;;;;;17.20;90.70;;;;;;5090095;28;19985;-75
2022/05/06 11:48:05;;;;;;;;;;;17.10;90.70;;;;;;5035936;28;19956;-76
2022/05/06 11:50:32;;;;;;;;;;;17.00;90.90;;;;;;5089865;28;20014;-76
2022/05/06 11:52:59;;;;;;;;;;;17.00;91.00;;;;;;5089502;28;19919;-76
2022/05/06 11:55:25;;;;;;;;;;;16.90;91.20;;;;;;5070743;28;20321;-76
2022/05/06 11:57:51;;;;;;;;;;;17.00;91.30;;;;;;5055093;28;19916;-76
2022/05/06 12:00:17;;;;;;;;;;;17.00;91.40;;;;;;5054928;28;19919;-76
2022/05/06 12:02:49;;;;;;;;;;;17.10;91.50;;;;;;5089367;28;20254;-76
2022/05/06 12:05:15;;;;;;;;;;;17.20;91.50;;;;;;5055205;28;19920;-76
2022/05/06 12:07:45;;;;;;;;;;;17.30;91.50;;;;;;5058400;28;19912;-77
2022/05/06 12:10:11;;;;;;;;;;;17.40;91.60;;;;;;5076190;28;19951;-75
2022/05/06 12:12:56;;;;;;;;;;;17.60;91.60;;;;;;5093574;28;19993;-74
2022/05/06 12:15:51;;;;;;;;;;;17.60;91.50;;;;;;5074246;28;20003;-75
2022/05/06 12:18:22;;;;;;;;;;;17.70;91.60;;;;;;5066880;28;19931;-76
2022/05/06 12:20:47;;;;;;;;;;;17.70;91.60;;;;;;5093106;28;20249;-77
2022/05/06 12:23:14;;;;;;;;;;;17.80;91.70;;;;;;5077752;28;19912;-77
2022/05/06 12:25:40;;;;;;;;;;;17.80;91.70;;;;;;5075626;28;19924;-77
2022/05/06 12:28:06;;;;;;;;;;;17.90;91.60;;;;;;5092489;28;19912;-77
2022/05/06 12:30:31;;;;;;;;;;;17.90;91.70;;;;;;5092119;28;19919;-76
2022/05/06 12:33:07;;;;;;;;;;;18.10;91.70;;;;;;5074462;28;19912;-73
2022/05/06 12:35:52;;;;;;;;;;;18.40;91.80;;;;;;5091902;28;19908;-74
2022/05/06 12:38:18;;;;;;;;;;;18.80;91.90;;;;;;5092351;28;20274;-74
2022/05/06 12:40:43;;;;;;;;;;;19.30;91.80;;;;;;5073891;28;19908;-73
2022/05/06 12:43:09;;;;;;;;;;;19.60;91.30;;;;;;5092539;28;19926;-75
2022/05/06 12:45:36;;;;;;;;;;;19.90;91.00;;;;;;5091687;28;19920;-74
2022/05/06 12:50:45;;;;;;;;;;;20.50;90.30;;;;;;5092336;28;19923;-76
2022/05/06 12:53:11;;;;;;;;;;;20.60;90.00;;;;;;5092838;28;19916;-75
2022/05/06 12:55:37;;;;;;;;;;;20.60;89.20;;;;;;5092207;28;19908;-75
2022/05/06 12:58:03;;;;;;;;;;;20.50;89.30;;;;;;5091864;28;19931;-75
2022/05/06 13:00:29;;;;;;;;;;;20.70;89.70;;;;;;5092580;28;20309;-76
2022/05/06 13:02:55;;;;;;;;;;;20.80;88.90;;;;;;5092630;28;19923;-76
2022/05/06 13:05:21;;;;;;;;;;;20.70;87.70;;;;;;5057602;28;19942;-76
2022/05/06 13:07:47;;;;;;;;;;;20.30;87.40;;;;;;5073736;28;19969;-78
2022/05/06 13:10:12;;;;;;;;;;;19.80;87.20;;;;;;5092163;28;19916;-75
2022/05/06 13:12:38;;;;;;;;;;;19.30;87.20;;;;;;5092701;28;19931;-76
2022/05/06 13:15:04;;;;;;;;;;;18.90;87.00;;;;;;5092222;28;19912;-75
2022/05/06 13:17:29;;;;;;;;;;;18.40;87.10;;;;;;5091067;28;19919;-76
2022/05/06 13:19:55;;;;;;;;;;;17.90;87.30;;;;;;5072201;28;19985;-76
2022/05/06 13:22:21;;;;;;;;;;;17.50;87.60;;;;;;5073812;28;19931;-78
2022/05/06 13:24:47;;;;;;;;;;;17.30;88.10;;;;;;5092064;28;20324;-76
2022/05/06 13:27:13;;;;;;;;;;;17.10;88.40;;;;;;5091980;28;19908;-77
2022/05/06 13:29:39;;;;;;;;;;;16.90;88.70;;;;;;5092014;28;19912;-75
2022/05/06 13:32:04;;;;;;;;;;;16.80;89.00;;;;;;5092218;28;19916;-76
2022/05/06 13:34:30;;;;;;;;;;;16.70;89.10;;;;;;5073966;28;19935;-77
2022/05/06 13:36:59;;;;;;;;;;;16.60;89.40;;;;;;5091994;28;19918;-77
2022/05/06 13:39:33;;;;;;;;;;;16.60;89.50;;;;;;5091774;28;19983;-78
2022/05/06 13:41:59;;;;;;;;;;;16.50;89.70;;;;;;5073467;28;20003;-77
2022/05/06 13:44:27;;;;;;;;;;;16.50;90.00;;;;;;5055814;28;20127;-77
2022/05/06 13:46:52;;;;;;;;;;;16.40;90.00;;;;;;5072635;28;19923;-77
2022/05/06 13:49:18;;;;;;;;;;;16.30;90.10;;;;;;5091292;28;20277;-76
2022/05/06 13:51:44;;;;;;;;;;;16.20;90.10;;;;;;5091808;28;19915;-76
2022/05/06 13:54:09;;;;;;;;;;;16.10;90.10;;;;;;5092041;28;20008;-76
2022/05/06 13:59:20;;;;;;;;;;;16.00;90.20;;;;;;5083733;28;19923;-76
2022/05/06 14:01:47;;;;;;;;;;;16.00;90.30;;;;;;5072318;28;19916;-74
2022/05/06 14:04:22;;;;;;;;;;;16.00;90.30;;;;;;5056347;28;20018;-76
2022/05/06 14:06:50;;;;;;;;;;;16.00;90.50;;;;;;5073001;28;19915;-76
2022/05/06 14:09:16;;;;;;;;;;;16.00;90.50;;;;;;5056310;28;20011;-76
2022/05/06 14:11:42;;;;;;;;;;;16.10;90.60;;;;;;5055675;28;20015;-75
2022/05/06 14:14:07;;;;;;;;;;;16.20;90.60;;;;;;5090382;28;19961;-75
2022/05/06 14:16:33;;;;;;;;;;;16.20;90.60;;;;;;5090565;28;20290;-74
2022/05/06 14:18:58;;;;;;;;;;;16.30;90.60;;;;;;5072165;28;19958;-76
2022/05/06 14:21:25;;;;;;;;;;;16.30;90.80;;;;;;5072254;28;19988;-76
2022/05/06 14:23:51;;;;;;;;;;;16.30;90.70;;;;;;5090536;28;19919;-76
2022/05/06 14:26:16;;;;;;;;;;;16.30;90.70;;;;;;5072234;28;19912;-77
2022/05/06 14:28:42;;;;;;;;;;;16.20;90.60;;;;;;5090778;28;19916;-77
2022/05/06 14:31:08;;;;;;;;;;;16.30;90.80;;;;;;5072269;28;19916;-75
2022/05/06 14:33:33;;;;;;;;;;;16.40;90.90;;;;;;5090913;28;19919;-75
2022/05/06 14:35:59;;;;;;;;;;;16.60;91.00;;;;;;5073106;28;19908;-76
2022/05/06 14:38:25;;;;;;;;;;;16.70;90.90;;;;;;5090818;28;19912;-76
2022/05/06 14:40:50;;;;;;;;;;;16.80;90.90;;;;;;5090957;28;19912;-75
2022/05/06 14:43:16;;;;;;;;;;;16.80;90.90;;;;;;5071865;28;19920;-76
2022/05/06 14:45:41;;;;;;;;;;;16.90;90.80;;;;;;5072708;28;19916;-76
2022/05/06 14:48:07;;;;;;;;;;;16.90;90.80;;;;;;5072338;28;19920;-76
2022/05/06 14:50:33;;;;;;;;;;;16.80;90.70;;;;;;5090656;28;19955;-77
2022/05/06 14:52:58;;;;;;;;;;;16.80;90.70;;;;;;5071374;28;19927;-77
2022/05/06 14:55:24;;;;;;;;;;;16.80;90.80;;;;;;5072365;28;19953;-76
2022/05/06 14:57:51;;;;;;;;;;;16.80;90.80;;;;;;5090147;28;19995;-76
2022/05/06 15:00:16;;;;;;;;;;;16.80;90.90;;;;;;5090599;28;20017;-75
2022/05/06 15:02:42;;;;;;;;;;;16.90;90.90;;;;;;5071993;28;19958;-77